sensor_id;sensor_type;location;lat;lon;timestamp;pressure;altitude;pressure_sealevel;temperature;humidity
46379;BME280;32084;42.254;22.744;2023-02-15T00:01:23;96407.94;;;-1.41;76.16
46379;BME280;32084;42.254;22.744;2023-02-15T00:03:49;96406.25;;;-1.42;76.66
46379;BME280;32084;42.254;22.744;2023-02-15T00:06:16;96405.09;;;-1.35;76.49
46379;BME280;32084;42.254;22.744;2023-02-15T00:08:42;96385.16;;;-1.17;75.76
46379;BME280;32084;42.254;22.744;2023-02-15T00:11:13;96399.19;;;-1.18;75.78
46379;BME280;32084;42.254;22.744;2023-02-15T00:13:39;96401.53;;;-1.10;75.83
46379;BME280;32084;42.254;22.744;2023-02-15T00:16:09;96394.63;;;-1.13;75.70
46379;BME280;32084;42.254;22.744;2023-02-15T00:18:35;96405.28;;;-1.40;76.07
46379;BME280;32084;42.254;22.744;2023-02-15T00:21:08;96400.25;;;-1.46;76.16
46379;BME280;32084;42.254;22.744;2023-02-15T00:23:35;96398.88;;;-1.32;76.19
46379;BME280;32084;42.254;22.744;2023-02-15T00:26:09;96400.72;;;-1.12;75.75
46379;BME280;32084;42.254;22.744;2023-02-15T00:28:35;96402.22;;;-1.05;75.57
46379;BME280;32084;42.254;22.744;2023-02-15T00:31:10;96405.75;;;-1.06;75.72
46379;BME280;32084;42.254;22.744;2023-02-15T00:33:38;96407.81;;;-1.14;75.30
46379;BME280;32084;42.254;22.744;2023-02-15T00:36:05;96414.88;;;-1.16;75.56
46379;BME280;32084;42.254;22.744;2023-02-15T00:38:31;96417.69;;;-1.21;75.44
46379;BME280;32084;42.254;22.744;2023-02-15T00:40:58;96418.72;;;-1.49;75.45
46379;BME280;32084;42.254;22.744;2023-02-15T00:43:25;96411.16;;;-1.57;76.04
46379;BME280;32084;42.254;22.744;2023-02-15T00:45:51;96412.00;;;-1.56;76.14
46379;BME280;32084;42.254;22.744;2023-02-15T00:48:17;96414.31;;;-1.72;76.22
46379;BME280;32084;42.254;22.744;2023-02-15T00:50:48;96417.78;;;-1.95;77.73
46379;BME280;32084;42.254;22.744;2023-02-15T00:53:14;96413.47;;;-1.98;78.33
46379;BME280;32084;42.254;22.744;2023-02-15T00:55:40;96418.19;;;-1.82;77.61
46379;BME280;32084;42.254;22.744;2023-02-15T00:58:06;96417.94;;;-1.74;77.24
46379;BME280;32084;42.254;22.744;2023-02-15T01:00:32;96421.25;;;-1.71;76.62
46379;BME280;32084;42.254;22.744;2023-02-15T01:02:59;96410.97;;;-1.75;76.15
46379;BME280;32084;42.254;22.744;2023-02-15T01:05:24;96399.38;;;-1.93;76.66
46379;BME280;32084;42.254;22.744;2023-02-15T01:07:51;96409.03;;;-1.96;76.72
46379;BME280;32084;42.254;22.744;2023-02-15T01:10:17;96406.22;;;-1.89;76.73
46379;BME280;32084;42.254;22.744;2023-02-15T01:12:43;96401.25;;;-1.97;76.67
46379;BME280;32084;42.254;22.744;2023-02-15T01:15:09;96398.34;;;-1.89;76.58
46379;BME280;32084;42.254;22.744;2023-02-15T01:17:35;96396.91;;;-1.98;76.31
46379;BME280;32084;42.254;22.744;2023-02-15T01:20:01;96389.13;;;-2.01;76.18
46379;BME280;32084;42.254;22.744;2023-02-15T01:22:27;96399.63;;;-2.26;76.37
46379;BME280;32084;42.254;22.744;2023-02-15T01:24:53;96393.72;;;-2.31;78.00
46379;BME280;32084;42.254;22.744;2023-02-15T01:27:19;96391.63;;;-2.22;78.03
46379;BME280;32084;42.254;22.744;2023-02-15T01:29:45;96386.47;;;-2.00;77.44
46379;BME280;32084;42.254;22.744;2023-02-15T01:32:12;96392.22;;;-1.90;76.13
46379;BME280;32084;42.254;22.744;2023-02-15T01:34:38;96397.00;;;-2.01;76.30
46379;BME280;32084;42.254;22.744;2023-02-15T01:37:04;96394.66;;;-2.09;76.94
46379;BME280;32084;42.254;22.744;2023-02-15T01:39:30;96395.91;;;-2.19;76.63
46379;BME280;32084;42.254;22.744;2023-02-15T01:41:56;96396.75;;;-2.19;76.25
46379;BME280;32084;42.254;22.744;2023-02-15T01:47:12;96394.06;;;-2.17;76.28
46379;BME280;32084;42.254;22.744;2023-02-15T01:49:39;96387.84;;;-2.40;76.15
46379;BME280;32084;42.254;22.744;2023-02-15T01:52:08;96382.53;;;-2.63;77.70
46379;BME280;32084;42.254;22.744;2023-02-15T01:54:35;96378.91;;;-2.59;78.67
46379;BME280;32084;42.254;22.744;2023-02-15T01:57:05;96382.06;;;-2.49;79.39
46379;BME280;32084;42.254;22.744;2023-02-15T01:59:34;96390.09;;;-2.54;79.35
46379;BME280;32084;42.254;22.744;2023-02-15T02:02:01;96402.72;;;-2.40;78.31
46379;BME280;32084;42.254;22.744;2023-02-15T02:04:39;96389.59;;;-2.39;76.99
46379;BME280;32084;42.254;22.744;2023-02-15T02:07:07;96387.50;;;-2.29;76.99
46379;BME280;32084;42.254;22.744;2023-02-15T02:09:34;96398.88;;;-2.30;77.09
46379;BME280;32084;42.254;22.744;2023-02-15T02:12:00;96395.44;;;-2.32;77.32
46379;BME280;32084;42.254;22.744;2023-02-15T02:14:26;96396.56;;;-2.39;77.10
46379;BME280;32084;42.254;22.744;2023-02-15T02:16:56;96396.03;;;-2.76;76.97
46379;BME280;32084;42.254;22.744;2023-02-15T02:22:21;96400.13;;;-2.67;78.66
46379;BME280;32084;42.254;22.744;2023-02-15T02:25:06;96399.53;;;-2.48;77.80
46379;BME280;32084;42.254;22.744;2023-02-15T02:37:55;96395.22;;;-2.51;77.79
46379;BME280;32084;42.254;22.744;2023-02-15T02:40:30;96394.78;;;-2.37;76.95
46379;BME280;32084;42.254;22.744;2023-02-15T02:43:05;96403.84;;;-2.47;76.87
46379;BME280;32084;42.254;22.744;2023-02-15T02:46:17;96400.66;;;-2.84;76.99
46379;BME280;32084;42.254;22.744;2023-02-15T02:48:24;96398.69;;;-2.77;77.93
46379;BME280;32084;42.254;22.744;2023-02-15T02:50:51;96402.03;;;-2.72;77.75
46379;BME280;32084;42.254;22.744;2023-02-15T02:53:17;96411.69;;;-2.74;77.08
46379;BME280;32084;42.254;22.744;2023-02-15T02:55:47;96408.44;;;-2.81;77.61
46379;BME280;32084;42.254;22.744;2023-02-15T03:00:56;96411.13;;;-2.84;76.92
46379;BME280;32084;42.254;22.744;2023-02-15T03:03:27;96407.25;;;-2.99;77.03
46379;BME280;32084;42.254;22.744;2023-02-15T03:05:57;96414.00;;;-2.91;77.23
46379;BME280;32084;42.254;22.744;2023-02-15T03:08:25;96412.56;;;-3.02;78.62
46379;BME280;32084;42.254;22.744;2023-02-15T03:10:54;96410.81;;;-3.01;79.76
46379;BME280;32084;42.254;22.744;2023-02-15T03:13:21;96410.63;;;-2.68;79.39
46379;BME280;32084;42.254;22.744;2023-02-15T03:15:48;96413.41;;;-2.73;77.21
46379;BME280;32084;42.254;22.744;2023-02-15T03:18:35;96414.00;;;-2.91;78.33
46379;BME280;32084;42.254;22.744;2023-02-15T03:21:02;96407.84;;;-2.90;78.21
46379;BME280;32084;42.254;22.744;2023-02-15T03:23:29;96420.03;;;-2.89;78.06
46379;BME280;32084;42.254;22.744;2023-02-15T03:25:57;96424.22;;;-2.84;77.51
46379;BME280;32084;42.254;22.744;2023-02-15T03:28:25;96423.63;;;-2.92;77.42
46379;BME280;32084;42.254;22.744;2023-02-15T03:30:53;96428.41;;;-3.06;78.37
46379;BME280;32084;42.254;22.744;2023-02-15T03:33:21;96427.28;;;-2.98;78.33
46379;BME280;32084;42.254;22.744;2023-02-15T03:35:52;96439.41;;;-2.95;77.68
46379;BME280;32084;42.254;22.744;2023-02-15T03:38:25;96434.97;;;-3.21;78.39
46379;BME280;32084;42.254;22.744;2023-02-15T03:40:51;96441.47;;;-3.35;79.44
46379;BME280;32084;42.254;22.744;2023-02-15T03:46:05;96429.47;;;-2.84;79.44
46379;BME280;32084;42.254;22.744;2023-02-15T03:48:37;96434.03;;;-2.64;78.68
46379;BME280;32084;42.254;22.744;2023-02-15T03:51:05;96425.59;;;-2.45;77.40
46379;BME280;32084;42.254;22.744;2023-02-15T03:53:52;96428.88;;;-2.39;77.70
46379;BME280;32084;42.254;22.744;2023-02-15T03:56:18;96435.97;;;-2.69;76.91
46379;BME280;32084;42.254;22.744;2023-02-15T03:58:44;96440.41;;;-2.71;78.52
46379;BME280;32084;42.254;22.744;2023-02-15T04:01:36;96432.25;;;-2.62;78.91
46379;BME280;32084;42.254;22.744;2023-02-15T04:04:32;96457.19;;;-2.50;77.77
46379;BME280;32084;42.254;22.744;2023-02-15T04:06:59;96453.25;;;-2.63;78.19
46379;BME280;32084;42.254;22.744;2023-02-15T04:09:25;96449.97;;;-2.70;78.94
46379;BME280;32084;42.254;22.744;2023-02-15T04:12:11;96453.09;;;-2.59;80.04
46379;BME280;32084;42.254;22.744;2023-02-15T04:14:37;96464.75;;;-2.41;79.88
46379;BME280;32084;42.254;22.744;2023-02-15T04:17:21;96457.81;;;-2.17;78.68
46379;BME280;32084;42.254;22.744;2023-02-15T04:19:47;96456.56;;;-2.05;78.23
46379;BME280;32084;42.254;22.744;2023-02-15T04:22:32;96461.41;;;-2.19;79.30
46379;BME280;32084;42.254;22.744;2023-02-15T04:25:16;96467.88;;;-2.29;81.35
46379;BME280;32084;42.254;22.744;2023-02-15T04:27:44;96471.53;;;-2.08;80.19
46379;BME280;32084;42.254;22.744;2023-02-15T04:30:10;96471.16;;;-1.98;79.41
46379;BME280;32084;42.254;22.744;2023-02-15T04:32:37;96465.50;;;-1.85;78.96
46379;BME280;32084;42.254;22.744;2023-02-15T04:35:04;96468.66;;;-1.75;78.51
46379;BME280;32084;42.254;22.744;2023-02-15T04:37:31;96471.19;;;-1.72;78.90
46379;BME280;32084;42.254;22.744;2023-02-15T04:39:57;96473.63;;;-1.68;79.33
46379;BME280;32084;42.254;22.744;2023-02-15T04:42:24;96472.22;;;-1.53;79.29
46379;BME280;32084;42.254;22.744;2023-02-15T04:44:51;96474.53;;;-1.44;79.36
46379;BME280;32084;42.254;22.744;2023-02-15T04:47:17;96470.31;;;-1.48;79.20
46379;BME280;32084;42.254;22.744;2023-02-15T04:49:43;96481.13;;;-1.57;80.29
46379;BME280;32084;42.254;22.744;2023-02-15T04:52:09;96488.44;;;-1.42;80.11
46379;BME280;32084;42.254;22.744;2023-02-15T04:54:35;96488.78;;;-1.27;79.03
46379;BME280;32084;42.254;22.744;2023-02-15T04:57:01;96491.38;;;-1.27;79.03
46379;BME280;32084;42.254;22.744;2023-02-15T04:59:27;96501.69;;;-1.21;79.52
46379;BME280;32084;42.254;22.744;2023-02-15T05:01:53;96497.06;;;-1.14;78.84
46379;BME280;32084;42.254;22.744;2023-02-15T05:04:19;96495.91;;;-1.07;78.35
46379;BME280;32084;42.254;22.744;2023-02-15T05:06:45;96505.28;;;-1.00;78.32
46379;BME280;32084;42.254;22.744;2023-02-15T05:09:11;96508.72;;;-0.98;78.18
46379;BME280;32084;42.254;22.744;2023-02-15T05:11:37;96506.78;;;-0.93;77.89
46379;BME280;32084;42.254;22.744;2023-02-15T05:14:04;96512.44;;;-0.82;77.08
46379;BME280;32084;42.254;22.744;2023-02-15T05:16:30;96511.44;;;-0.77;77.00
46379;BME280;32084;42.254;22.744;2023-02-15T05:18:56;96520.22;;;-0.79;76.79
46379;BME280;32084;42.254;22.744;2023-02-15T05:21:22;96519.72;;;-0.88;77.72
46379;BME280;32084;42.254;22.744;2023-02-15T05:23:48;96522.91;;;-0.80;77.78
46379;BME280;32084;42.254;22.744;2023-02-15T05:26:18;96526.41;;;-0.80;77.60
46379;BME280;32084;42.254;22.744;2023-02-15T05:29:03;96523.81;;;-0.81;77.43
46379;BME280;32084;42.254;22.744;2023-02-15T05:31:30;96526.69;;;-0.87;77.95
46379;BME280;32084;42.254;22.744;2023-02-15T05:33:56;96526.16;;;-0.73;77.71
46379;BME280;32084;42.254;22.744;2023-02-15T05:36:22;96518.97;;;-0.68;77.58
46379;BME280;32084;42.254;22.744;2023-02-15T05:38:48;96516.84;;;-0.58;77.10
46379;BME280;32084;42.254;22.744;2023-02-15T05:41:14;96521.28;;;-0.61;77.31
46379;BME280;32084;42.254;22.744;2023-02-15T05:43:40;96529.34;;;-0.65;77.62
46379;BME280;32084;42.254;22.744;2023-02-15T05:46:06;96531.13;;;-0.89;78.90
46379;BME280;32084;42.254;22.744;2023-02-15T05:48:32;96519.53;;;-1.07;79.15
46379;BME280;32084;42.254;22.744;2023-02-15T05:53:25;96530.81;;;-0.82;79.85
46379;BME280;32084;42.254;22.744;2023-02-15T05:55:51;96535.69;;;-0.71;78.72
46379;BME280;32084;42.254;22.744;2023-02-15T05:58:17;96536.44;;;-0.67;77.98
46379;BME280;32084;42.254;22.744;2023-02-15T06:00:43;96540.97;;;-0.49;78.08
46379;BME280;32084;42.254;22.744;2023-02-15T06:03:09;96548.31;;;-0.35;77.63
46379;BME280;32084;42.254;22.744;2023-02-15T06:05:35;96538.28;;;-0.25;78.26
46379;BME280;32084;42.254;22.744;2023-02-15T06:08:01;96544.22;;;-0.20;77.21
46379;BME280;32084;42.254;22.744;2023-02-15T06:10:27;96539.75;;;-0.18;77.70
46379;BME280;32084;42.254;22.744;2023-02-15T06:12:53;96542.88;;;-0.08;77.41
46379;BME280;32084;42.254;22.744;2023-02-15T06:15:19;96534.19;;;0.12;76.79
46379;BME280;32084;42.254;22.744;2023-02-15T06:17:45;96544.63;;;0.13;76.63
46379;BME280;32084;42.254;22.744;2023-02-15T06:20:11;96543.59;;;0.17;76.63
46379;BME280;32084;42.254;22.744;2023-02-15T06:22:37;96546.94;;;0.21;76.04
46379;BME280;32084;42.254;22.744;2023-02-15T06:25:03;96542.88;;;0.34;76.44
46379;BME280;32084;42.254;22.744;2023-02-15T06:27:30;96544.13;;;0.46;74.77
46379;BME280;32084;42.254;22.744;2023-02-15T06:29:56;96539.66;;;0.48;75.19
46379;BME280;32084;42.254;22.744;2023-02-15T06:32:22;96544.72;;;0.73;74.65
46379;BME280;32084;42.254;22.744;2023-02-15T06:34:48;96539.56;;;0.91;73.25
46379;BME280;32084;42.254;22.744;2023-02-15T06:37:14;96540.28;;;0.94;73.74
46379;BME280;32084;42.254;22.744;2023-02-15T06:39:40;96538.28;;;1.00;73.15
46379;BME280;32084;42.254;22.744;2023-02-15T06:42:06;96541.31;;;1.11;72.17
46379;BME280;32084;42.254;22.744;2023-02-15T06:44:32;96548.22;;;1.32;72.38
46379;BME280;32084;42.254;22.744;2023-02-15T06:46:58;96548.59;;;1.44;72.90
46379;BME280;32084;42.254;22.744;2023-02-15T06:49:23;96544.31;;;1.41;73.07
46379;BME280;32084;42.254;22.744;2023-02-15T06:51:49;96546.53;;;1.50;73.24
46379;BME280;32084;42.254;22.744;2023-02-15T06:54:15;96538.63;;;1.50;73.54
46379;BME280;32084;42.254;22.744;2023-02-15T06:56:41;96548.28;;;1.69;72.88
46379;BME280;32084;42.254;22.744;2023-02-15T06:59:09;96540.81;;;1.79;72.76
46379;BME280;32084;42.254;22.744;2023-02-15T07:01:35;96534.41;;;2.02;71.41
46379;BME280;32084;42.254;22.744;2023-02-15T07:04:02;96534.06;;;2.27;69.97
46379;BME280;32084;42.254;22.744;2023-02-15T07:06:34;96536.69;;;2.27;69.37
46379;BME280;32084;42.254;22.744;2023-02-15T07:09:01;96547.88;;;2.49;69.20
46379;BME280;32084;42.254;22.744;2023-02-15T07:11:27;96550.41;;;3.03;67.60
46379;BME280;32084;42.254;22.744;2023-02-15T07:14:12;96542.34;;;4.64;60.80
46379;BME280;32084;42.254;22.744;2023-02-15T07:16:38;96547.41;;;4.38;62.29
46379;BME280;32084;42.254;22.744;2023-02-15T07:19:05;96545.06;;;5.64;56.29
46379;BME280;32084;42.254;22.744;2023-02-15T07:21:33;96539.28;;;6.41;53.50
46379;BME280;32084;42.254;22.744;2023-02-15T07:23:59;96543.63;;;6.02;55.39
46379;BME280;32084;42.254;22.744;2023-02-15T07:26:25;96560.38;;;7.22;51.69
46379;BME280;32084;42.254;22.744;2023-02-15T07:28:51;96555.16;;;6.95;51.76
46379;BME280;32084;42.254;22.744;2023-02-15T07:31:17;96550.81;;;7.07;52.37
46379;BME280;32084;42.254;22.744;2023-02-15T07:33:43;96529.81;;;5.68;54.59
46379;BME280;32084;42.254;22.744;2023-02-15T07:36:09;96527.25;;;5.81;56.78
46379;BME280;32084;42.254;22.744;2023-02-15T07:38:38;96526.22;;;5.40;57.21
46379;BME280;32084;42.254;22.744;2023-02-15T07:41:05;96520.81;;;4.99;58.72
46379;BME280;32084;42.254;22.744;2023-02-15T07:43:33;96539.25;;;5.86;56.19
46379;BME280;32084;42.254;22.744;2023-02-15T07:46:00;96540.66;;;6.87;53.65
46379;BME280;32084;42.254;22.744;2023-02-15T07:48:26;96536.19;;;6.74;54.16
46379;BME280;32084;42.254;22.744;2023-02-15T07:50:52;96540.28;;;6.93;52.90
46379;BME280;32084;42.254;22.744;2023-02-15T07:53:18;96538.56;;;7.04;52.90
46379;BME280;32084;42.254;22.744;2023-02-15T07:55:44;96535.69;;;6.95;54.26
46379;BME280;32084;42.254;22.744;2023-02-15T07:58:10;96530.06;;;6.99;53.25
46379;BME280;32084;42.254;22.744;2023-02-15T08:00:36;96524.44;;;7.04;53.54
46379;BME280;32084;42.254;22.744;2023-02-15T08:03:23;96522.19;;;7.36;52.73
46379;BME280;32084;42.254;22.744;2023-02-15T08:05:55;96533.13;;;7.45;52.02
46379;BME280;32084;42.254;22.744;2023-02-15T08:08:21;96522.19;;;7.36;51.37
46379;BME280;32084;42.254;22.744;2023-02-15T08:11:01;96515.16;;;7.48;51.20
46379;BME280;32084;42.254;22.744;2023-02-15T08:13:46;96519.75;;;7.33;52.04
46379;BME280;32084;42.254;22.744;2023-02-15T08:16:25;96521.69;;;7.81;51.52
46379;BME280;32084;42.254;22.744;2023-02-15T08:18:52;96525.22;;;7.69;51.97
46379;BME280;32084;42.254;22.744;2023-02-15T08:21:18;96518.91;;;7.82;51.19
46379;BME280;32084;42.254;22.744;2023-02-15T08:23:45;96516.31;;;7.94;50.90
46379;BME280;32084;42.254;22.744;2023-02-15T08:26:11;96511.63;;;7.97;51.01
46379;BME280;32084;42.254;22.744;2023-02-15T08:28:37;96516.72;;;8.00;50.93
46379;BME280;32084;42.254;22.744;2023-02-15T08:31:07;96517.66;;;8.12;51.23
46379;BME280;32084;42.254;22.744;2023-02-15T08:33:34;96519.34;;;8.37;51.10
46379;BME280;32084;42.254;22.744;2023-02-15T08:36:04;96520.78;;;8.90;49.58
46379;BME280;32084;42.254;22.744;2023-02-15T08:38:30;96516.31;;;8.90;49.42
46379;BME280;32084;42.254;22.744;2023-02-15T08:40:57;96516.34;;;9.13;47.66
46379;BME280;32084;42.254;22.744;2023-02-15T08:43:23;96511.00;;;9.13;48.85
46379;BME280;32084;42.254;22.744;2023-02-15T08:45:49;96520.59;;;9.15;48.02
46379;BME280;32084;42.254;22.744;2023-02-15T08:48:15;96521.22;;;9.19;48.10
46379;BME280;32084;42.254;22.744;2023-02-15T08:50:41;96513.84;;;9.56;48.45
46379;BME280;32084;42.254;22.744;2023-02-15T08:53:07;96512.22;;;9.76;47.56
46379;BME280;32084;42.254;22.744;2023-02-15T08:55:33;96519.88;;;10.04;46.59
46379;BME280;32084;42.254;22.744;2023-02-15T08:57:59;96518.88;;;10.05;45.66
46379;BME280;32084;42.254;22.744;2023-02-15T09:00:25;96518.53;;;9.98;45.35
46379;BME280;32084;42.254;22.744;2023-02-15T09:02:51;96529.47;;;9.95;46.14
46379;BME280;32084;42.254;22.744;2023-02-15T09:05:18;96527.41;;;9.99;45.93
46379;BME280;32084;42.254;22.744;2023-02-15T09:07:44;96531.00;;;10.20;45.26
46379;BME280;32084;42.254;22.744;2023-02-15T09:10:10;96530.13;;;10.74;44.39
46379;BME280;32084;42.254;22.744;2023-02-15T09:12:36;96537.84;;;10.89;44.56
46379;BME280;32084;42.254;22.744;2023-02-15T09:15:02;96542.22;;;10.90;43.95
46379;BME280;32084;42.254;22.744;2023-02-15T09:17:28;96532.72;;;10.32;44.00
46379;BME280;32084;42.254;22.744;2023-02-15T09:19:54;96524.81;;;10.63;44.72
46379;BME280;32084;42.254;22.744;2023-02-15T09:22:20;96522.69;;;10.78;44.16
46379;BME280;32084;42.254;22.744;2023-02-15T09:24:46;96531.03;;;11.06;43.90
46379;BME280;32084;42.254;22.744;2023-02-15T09:27:12;96530.84;;;11.19;43.37
46379;BME280;32084;42.254;22.744;2023-02-15T09:29:38;96532.63;;;11.29;43.12
46379;BME280;32084;42.254;22.744;2023-02-15T09:32:04;96525.25;;;10.80;42.50
46379;BME280;32084;42.254;22.744;2023-02-15T09:34:31;96531.75;;;10.87;43.72
46379;BME280;32084;42.254;22.744;2023-02-15T09:36:57;96532.09;;;10.93;42.41
46379;BME280;32084;42.254;22.744;2023-02-15T09:39:23;96526.28;;;11.09;42.89
46379;BME280;32084;42.254;22.744;2023-02-15T09:44:28;96524.03;;;11.57;42.12
46379;BME280;32084;42.254;22.744;2023-02-15T09:58:19;96519.69;;;11.35;41.91
46379;BME280;32084;42.254;22.744;2023-02-15T10:03:37;96504.09;;;11.49;41.82
46379;BME280;32084;42.254;22.744;2023-02-15T10:06:22;96511.78;;;11.64;40.83
46379;BME280;32084;42.254;22.744;2023-02-15T10:09:06;96499.69;;;12.00;40.78
46379;BME280;32084;42.254;22.744;2023-02-15T10:11:56;96485.91;;;12.15;41.09
46379;BME280;32084;42.254;22.744;2023-02-15T10:24:54;96478.78;;;11.94;40.50
46379;BME280;32084;42.254;22.744;2023-02-15T10:27:23;96472.91;;;11.79;40.82
46379;BME280;32084;42.254;22.744;2023-02-15T10:30:08;96467.31;;;11.82;40.45
46379;BME280;32084;42.254;22.744;2023-02-15T10:32:38;96474.72;;;12.00;40.34
46379;BME280;32084;42.254;22.744;2023-02-15T10:35:16;96477.28;;;12.21;39.91
46379;BME280;32084;42.254;22.744;2023-02-15T10:58:17;96447.66;;;11.82;40.31
46379;BME280;32084;42.254;22.744;2023-02-15T11:06:03;96439.34;;;12.35;38.89
46379;BME280;32084;42.254;22.744;2023-02-15T11:08:32;96431.13;;;12.17;39.92
46379;BME280;32084;42.254;22.744;2023-02-15T11:11:01;96432.00;;;12.27;39.94
46379;BME280;32084;42.254;22.744;2023-02-15T11:13:29;96433.28;;;12.43;38.70
46379;BME280;32084;42.254;22.744;2023-02-15T11:16:00;96421.97;;;12.29;39.41
46379;BME280;32084;42.254;22.744;2023-02-15T11:23:24;96418.88;;;12.34;38.77
46379;BME280;32084;42.254;22.744;2023-02-15T11:25:56;96422.09;;;12.47;38.45
46379;BME280;32084;42.254;22.744;2023-02-15T11:31:17;96405.75;;;12.41;38.89
46379;BME280;32084;42.254;22.744;2023-02-15T11:33:45;96408.53;;;12.20;38.94
46379;BME280;32084;42.254;22.744;2023-02-15T11:36:23;96405.72;;;11.92;39.03
46379;BME280;32084;42.254;22.744;2023-02-15T11:38:52;96397.56;;;12.13;39.53
46379;BME280;32084;42.254;22.744;2023-02-15T11:41:21;96392.75;;;12.07;39.44
46379;BME280;32084;42.254;22.744;2023-02-15T11:46:22;96383.56;;;11.90;39.74
46379;BME280;32084;42.254;22.744;2023-02-15T11:48:48;96383.28;;;11.93;39.41
46379;BME280;32084;42.254;22.744;2023-02-15T11:51:15;96378.31;;;11.88;39.69
46379;BME280;32084;42.254;22.744;2023-02-15T11:53:41;96383.56;;;12.00;39.27
46379;BME280;32084;42.254;22.744;2023-02-15T11:56:17;96376.19;;;11.82;39.78
46379;BME280;32084;42.254;22.744;2023-02-15T12:01:33;96369.59;;;12.45;39.10
46379;BME280;32084;42.254;22.744;2023-02-15T12:06:29;96362.97;;;11.90;39.45
46379;BME280;32084;42.254;22.744;2023-02-15T12:11:37;96362.50;;;11.85;39.73
46379;BME280;32084;42.254;22.744;2023-02-15T12:14:05;96356.56;;;11.72;39.63
46379;BME280;32084;42.254;22.744;2023-02-15T12:16:32;96352.38;;;11.99;39.56
46379;BME280;32084;42.254;22.744;2023-02-15T12:22:27;96355.09;;;12.08;39.14
46379;BME280;32084;42.254;22.744;2023-02-15T12:24:55;96352.25;;;11.90;39.46
46379;BME280;32084;42.254;22.744;2023-02-15T12:27:32;96345.84;;;11.82;39.78
46379;BME280;32084;42.254;22.744;2023-02-15T12:30:17;96330.22;;;11.97;40.04
46379;BME280;32084;42.254;22.744;2023-02-15T12:35:14;96332.03;;;11.86;39.16
46379;BME280;32084;42.254;22.744;2023-02-15T12:37:51;96330.75;;;11.71;38.70
46379;BME280;32084;42.254;22.744;2023-02-15T12:40:19;96320.03;;;11.51;39.55
46379;BME280;32084;42.254;22.744;2023-02-15T12:42:45;96318.59;;;11.57;39.76
46379;BME280;32084;42.254;22.744;2023-02-15T12:47:47;96310.16;;;11.52;39.98
46379;BME280;32084;42.254;22.744;2023-02-15T12:50:33;96305.91;;;11.49;39.65
46379;BME280;32084;42.254;22.744;2023-02-15T12:53:15;96303.91;;;11.42;39.75
46379;BME280;32084;42.254;22.744;2023-02-15T12:55:52;96303.41;;;11.58;40.01
46379;BME280;32084;42.254;22.744;2023-02-15T13:00:45;96297.59;;;11.43;40.18
46379;BME280;32084;42.254;22.744;2023-02-15T13:03:18;96304.78;;;11.42;39.99
46379;BME280;32084;42.254;22.744;2023-02-15T13:05:46;96297.31;;;11.46;39.86
46379;BME280;32084;42.254;22.744;2023-02-15T13:10:41;96301.53;;;11.48;40.11
46379;BME280;32084;42.254;22.744;2023-02-15T13:13:15;96299.13;;;11.45;40.21
46379;BME280;32084;42.254;22.744;2023-02-15T13:15:44;96300.03;;;11.05;40.17
46379;BME280;32084;42.254;22.744;2023-02-15T13:18:15;96296.97;;;11.10;41.11
46379;BME280;32084;42.254;22.744;2023-02-15T13:20:43;96298.75;;;11.09;40.34
46379;BME280;32084;42.254;22.744;2023-02-15T13:23:31;96291.88;;;11.17;40.70
46379;BME280;32084;42.254;22.744;2023-02-15T13:25:58;96289.94;;;11.38;40.51
46379;BME280;32084;42.254;22.744;2023-02-15T13:28:27;96285.16;;;11.42;40.03
46379;BME280;32084;42.254;22.744;2023-02-15T13:30:57;96278.53;;;11.36;40.22
46379;BME280;32084;42.254;22.744;2023-02-15T13:33:25;96288.84;;;11.31;40.44
46379;BME280;32084;42.254;22.744;2023-02-15T13:45:41;96278.69;;;11.35;40.47
46379;BME280;32084;42.254;22.744;2023-02-15T13:55:36;96288.50;;;11.14;39.51
46379;BME280;32084;42.254;22.744;2023-02-15T14:15:57;96289.59;;;11.02;40.18
46379;BME280;32084;42.254;22.744;2023-02-15T14:18:37;96293.50;;;10.98;40.12
46379;BME280;32084;42.254;22.744;2023-02-15T14:23:33;96286.06;;;10.61;40.78
46379;BME280;32084;42.254;22.744;2023-02-15T14:26:19;96280.72;;;10.61;40.83
46379;BME280;32084;42.254;22.744;2023-02-15T14:28:59;96284.53;;;10.68;40.91
46379;BME280;32084;42.254;22.744;2023-02-15T14:31:32;96288.72;;;10.61;40.85
46379;BME280;32084;42.254;22.744;2023-02-15T14:33:59;96289.19;;;10.66;40.74
46379;BME280;32084;42.254;22.744;2023-02-15T14:36:26;96282.13;;;10.65;40.87
46379;BME280;32084;42.254;22.744;2023-02-15T14:41:23;96284.69;;;10.67;41.24
46379;BME280;32084;42.254;22.744;2023-02-15T14:46:46;96288.47;;;10.64;41.29
46379;BME280;32084;42.254;22.744;2023-02-15T14:49:23;96290.81;;;10.58;41.77
46379;BME280;32084;42.254;22.744;2023-02-15T14:56:43;96289.84;;;10.59;41.01
46379;BME280;32084;42.254;22.744;2023-02-15T14:59:17;96286.72;;;10.53;41.53
46379;BME280;32084;42.254;22.744;2023-02-15T15:01:51;96289.03;;;10.37;41.29
46379;BME280;32084;42.254;22.744;2023-02-15T15:04:23;96296.50;;;10.43;42.15
46379;BME280;32084;42.254;22.744;2023-02-15T15:09:34;96277.91;;;10.00;43.18
46379;BME280;32084;42.254;22.744;2023-02-15T15:12:13;96280.13;;;9.73;43.83
46379;BME280;32084;42.254;22.744;2023-02-15T15:14:41;96278.19;;;9.43;44.32
46379;BME280;32084;42.254;22.744;2023-02-15T15:17:09;96279.09;;;9.10;45.17
46379;BME280;32084;42.254;22.744;2023-02-15T15:22:19;96281.34;;;8.59;46.74
46379;BME280;32084;42.254;22.744;2023-02-15T15:24:47;96272.81;;;8.32;47.05
46379;BME280;32084;42.254;22.744;2023-02-15T15:29:57;96276.53;;;8.07;47.60
46379;BME280;32084;42.254;22.744;2023-02-15T15:32:24;96270.19;;;7.96;47.64
46379;BME280;32084;42.254;22.744;2023-02-15T15:42:50;96275.47;;;7.38;49.00
46379;BME280;32084;42.254;22.744;2023-02-15T15:50:28;96281.63;;;6.91;50.19
46379;BME280;32084;42.254;22.744;2023-02-15T15:52:55;96283.88;;;6.71;50.68
46379;BME280;32084;42.254;22.744;2023-02-15T15:55:23;96290.53;;;6.53;50.97
46379;BME280;32084;42.254;22.744;2023-02-15T15:57:52;96282.47;;;6.41;51.10
46379;BME280;32084;42.254;22.744;2023-02-15T16:00:39;96291.50;;;6.26;52.11